createdAt,value
2018-11-27T00:08:26.043Z,93.95
2018-11-27T00:29:02.262Z,93.62
2018-11-27T00:49:39.495Z,92.10
2018-11-27T01:10:24.699Z,91.09
2018-11-27T01:31:01.711Z,90.78
2018-11-27T01:51:39.131Z,91.47
2018-11-27T02:12:20.241Z,91.08
2018-11-27T02:32:57.662Z,91.36
2018-11-27T02:53:35.087Z,91.50
2018-11-27T03:14:10.391Z,91.47
2018-11-27T03:34:47.474Z,91.71
2018-11-27T03:55:23.861Z,90.66
2018-11-27T04:16:01.109Z,90.41
2018-11-27T04:36:40.972Z,91.38
2018-11-27T04:57:19.621Z,90.57
2018-11-27T05:17:57.863Z,92.01
2018-11-27T05:38:34.056Z,90.40
2018-11-27T05:59:15.169Z,91.86
2018-11-27T06:19:50.543Z,92.20
2018-11-27T06:40:28.786Z,92.82
2018-11-27T07:01:07.844Z,92.41
2018-11-27T07:21:51.413Z,93.04
2018-11-27T07:42:27.606Z,94.77
2018-11-27T08:03:05.841Z,94.79
2018-11-27T08:23:42.039Z,93.96
2018-11-27T08:44:17.417Z,94.88
2018-11-27T09:04:55.655Z,94.26
2018-11-27T09:25:33.999Z,93.64
2018-11-27T09:46:12.140Z,92.40
2018-11-27T10:06:46.285Z,91.43
2018-11-27T10:27:23.709Z,91.11
2018-11-27T10:48:05.022Z,88.18
2018-11-27T11:08:42.238Z,87.84
2018-11-27T11:29:19.252Z,85.74
2018-11-27T11:50:02.825Z,85.00
2018-11-27T12:10:39.015Z,82.52
2018-11-27T12:31:20.120Z,78.59
2018-11-27T12:51:59.602Z,74.46
2018-11-27T13:12:39.883Z,80.38
2018-11-27T13:33:23.859Z,81.70
2018-11-27T13:54:02.103Z,83.01
2018-11-27T14:14:41.768Z,85.31
2018-11-27T14:35:19.816Z,85.67
2018-11-27T14:56:00.314Z,85.49
2018-11-27T15:16:39.165Z,85.82
2018-11-27T15:37:15.768Z,85.73
2018-11-27T15:58:03.838Z,86.28
2018-11-27T16:18:43.448Z,86.80
2018-11-27T16:39:23.600Z,87.49
2018-11-27T17:00:02.666Z,89.31
2018-11-27T17:20:42.943Z,89.07
2018-11-27T17:41:24.464Z,89.38
2018-11-27T18:02:03.529Z,90.31
2018-11-27T18:22:40.949Z,90.36
2018-11-27T18:43:19.192Z,91.62
2018-11-27T19:03:59.544Z,91.85
2018-11-27T19:24:35.678Z,92.73
2018-11-27T19:45:13.917Z,92.82
2018-11-27T20:05:52.163Z,92.39
2018-11-27T20:26:32.447Z,92.60
2018-11-27T20:47:11.927Z,92.98
2018-11-27T21:07:51.208Z,93.46
2018-11-27T21:28:35.531Z,93.47
2018-11-27T21:49:13.206Z,93.38
2018-11-27T22:09:52.047Z,93.87
2018-11-27T22:30:28.871Z,93.64
2018-11-27T22:51:06.606Z,93.82
2018-11-27T23:11:42.494Z,94.81
2018-11-27T23:32:17.863Z,94.86
2018-11-27T23:52:54.875Z,94.37
